sensor_id;sensor_type;location;lat;lon;timestamp;pressure;altitude;pressure_sealevel;temperature;humidity
71735;BME280;59577;52.122;5.406;2022-09-30T00:01:18;100945.41;;;6.15;86.28
71735;BME280;59577;52.122;5.406;2022-09-30T00:03:45;100929.59;;;6.13;86.60
71735;BME280;59577;52.122;5.406;2022-09-30T00:06:13;100932.91;;;6.10;86.59
71735;BME280;59577;52.122;5.406;2022-09-30T00:08:40;100937.53;;;6.01;86.13
71735;BME280;59577;52.122;5.406;2022-09-30T00:11:13;100948.25;;;5.92;86.06
71735;BME280;59577;52.122;5.406;2022-09-30T00:13:41;100941.28;;;5.91;86.22
71735;BME280;59577;52.122;5.406;2022-09-30T00:16:09;100944.44;;;5.93;86.04
71735;BME280;59577;52.122;5.406;2022-09-30T00:18:37;100939.88;;;5.94;86.72
71735;BME280;59577;52.122;5.406;2022-09-30T00:21:05;100943.97;;;5.91;86.50
71735;BME280;59577;52.122;5.406;2022-09-30T00:23:32;100944.28;;;5.90;86.38
71735;BME280;59577;52.122;5.406;2022-09-30T00:26:02;100951.88;;;5.88;86.18
71735;BME280;59577;52.122;5.406;2022-09-30T00:28:29;100940.50;;;5.82;85.84
71735;BME280;59577;52.122;5.406;2022-09-30T00:31:03;100934.34;;;5.81;86.17
71735;BME280;59577;52.122;5.406;2022-09-30T00:33:33;100939.06;;;5.84;86.50
71735;BME280;59577;52.122;5.406;2022-09-30T00:36:00;100941.75;;;5.84;86.52
71735;BME280;59577;52.122;5.406;2022-09-30T00:38:27;100941.28;;;5.82;86.07
71735;BME280;59577;52.122;5.406;2022-09-30T00:40:53;100939.06;;;5.76;86.33
71735;BME280;59577;52.122;5.406;2022-09-30T00:43:45;100942.56;;;5.59;86.27
71735;BME280;59577;52.122;5.406;2022-09-30T00:48:59;100947.72;;;5.46;86.47
71735;BME280;59577;52.122;5.406;2022-09-30T00:51:34;100952.03;;;5.56;86.32
71735;BME280;59577;52.122;5.406;2022-09-30T00:54:06;100947.94;;;5.59;86.67
71735;BME280;59577;52.122;5.406;2022-09-30T00:56:39;100945.06;;;5.55;86.28
71735;BME280;59577;52.122;5.406;2022-09-30T00:59:16;100943.97;;;5.47;86.03
71735;BME280;59577;52.122;5.406;2022-09-30T01:01:44;100940.81;;;5.45;86.91
71735;BME280;59577;52.122;5.406;2022-09-30T01:04:13;100944.75;;;5.48;86.37
71735;BME280;59577;52.122;5.406;2022-09-30T01:06:41;100947.41;;;5.48;86.37
71735;BME280;59577;52.122;5.406;2022-09-30T01:09:09;100952.00;;;5.47;86.03
71735;BME280;59577;52.122;5.406;2022-09-30T01:11:35;100951.22;;;5.38;86.85
71735;BME280;59577;52.122;5.406;2022-09-30T01:14:19;100948.69;;;5.33;86.50
71735;BME280;59577;52.122;5.406;2022-09-30T01:20:05;100944.25;;;5.37;87.26
71735;BME280;59577;52.122;5.406;2022-09-30T01:23:10;100951.06;;;5.35;86.69
71735;BME280;59577;52.122;5.406;2022-09-30T01:31:39;100942.97;;;5.26;86.37
71735;BME280;59577;52.122;5.406;2022-09-30T01:34:27;100944.38;;;5.23;86.38
71735;BME280;59577;52.122;5.406;2022-09-30T01:37:06;100950.53;;;5.24;86.53
71735;BME280;59577;52.122;5.406;2022-09-30T01:42:40;100953.06;;;5.20;86.73
71735;BME280;59577;52.122;5.406;2022-09-30T01:45:36;100954.78;;;5.16;86.68
71735;BME280;59577;52.122;5.406;2022-09-30T01:51:09;100957.31;;;5.13;86.83
71735;BME280;59577;52.122;5.406;2022-09-30T01:53:49;100958.41;;;5.12;87.24
71735;BME280;59577;52.122;5.406;2022-09-30T01:56:31;100959.66;;;5.05;86.57
71735;BME280;59577;52.122;5.406;2022-09-30T01:59:07;100963.72;;;4.94;86.36
71735;BME280;59577;52.122;5.406;2022-09-30T02:01:41;100962.13;;;4.93;86.52
71735;BME280;59577;52.122;5.406;2022-09-30T02:04:17;100965.00;;;4.97;86.87
71735;BME280;59577;52.122;5.406;2022-09-30T02:06:49;100966.25;;;4.99;87.06
71735;BME280;59577;52.122;5.406;2022-09-30T02:09:22;100963.09;;;4.97;87.04
71735;BME280;59577;52.122;5.406;2022-09-30T02:11:52;100963.09;;;4.97;86.55
71735;BME280;59577;52.122;5.406;2022-09-30T02:14:32;100961.84;;;5.03;86.77
71735;BME280;59577;52.122;5.406;2022-09-30T02:17:13;100968.66;;;5.09;86.67
71735;BME280;59577;52.122;5.406;2022-09-30T02:19:44;100961.38;;;5.10;86.87
71735;BME280;59577;52.122;5.406;2022-09-30T02:22:19;100965.03;;;5.05;87.07
71735;BME280;59577;52.122;5.406;2022-09-30T02:24:51;100959.50;;;5.02;86.78
71735;BME280;59577;52.122;5.406;2022-09-30T02:27:23;100956.31;;;5.00;86.84
71735;BME280;59577;52.122;5.406;2022-09-30T02:29:56;100964.00;;;4.93;86.85
71735;BME280;59577;52.122;5.406;2022-09-30T02:32:28;100965.56;;;4.85;87.05
71735;BME280;59577;52.122;5.406;2022-09-30T02:35:02;100957.66;;;4.80;86.97
71735;BME280;59577;52.122;5.406;2022-09-30T02:37:34;100966.34;;;4.85;86.74
71735;BME280;59577;52.122;5.406;2022-09-30T02:42:32;100957.84;;;4.83;87.16
71735;BME280;59577;52.122;5.406;2022-09-30T02:45:06;100957.66;;;4.80;87.17
71735;BME280;59577;52.122;5.406;2022-09-30T02:50:40;100954.38;;;4.83;87.01
71735;BME280;59577;52.122;5.406;2022-09-30T02:58:39;100957.78;;;4.75;86.65
71735;BME280;59577;52.122;5.406;2022-09-30T03:01:10;100958.56;;;4.75;87.10
71735;BME280;59577;52.122;5.406;2022-09-30T03:03:41;100959.69;;;4.74;86.81
71735;BME280;59577;52.122;5.406;2022-09-30T03:06:09;100957.78;;;4.75;86.82
71735;BME280;59577;52.122;5.406;2022-09-30T03:08:37;100958.41;;;4.71;86.24
71735;BME280;59577;52.122;5.406;2022-09-30T03:11:04;100962.69;;;4.73;86.78
71735;BME280;59577;52.122;5.406;2022-09-30T03:19:40;100970.22;;;4.70;86.73
71735;BME280;59577;52.122;5.406;2022-09-30T03:22:40;100981.75;;;4.71;87.30
71735;BME280;59577;52.122;5.406;2022-09-30T03:28:22;100976.34;;;4.62;87.03
71735;BME280;59577;52.122;5.406;2022-09-30T03:30:59;100983.28;;;4.63;86.61
71735;BME280;59577;52.122;5.406;2022-09-30T03:33:40;100994.31;;;4.62;86.80
71735;BME280;59577;52.122;5.406;2022-09-30T03:36:37;100996.81;;;4.58;86.81
71735;BME280;59577;52.122;5.406;2022-09-30T03:44:39;101005.22;;;4.43;86.96
71735;BME280;59577;52.122;5.406;2022-09-30T03:47:09;101007.13;;;4.42;87.12
71735;BME280;59577;52.122;5.406;2022-09-30T03:49:41;101008.84;;;4.38;87.21
71735;BME280;59577;52.122;5.406;2022-09-30T03:52:12;101011.81;;;4.37;86.88
71735;BME280;59577;52.122;5.406;2022-09-30T03:54:47;101017.66;;;4.39;87.23
71735;BME280;59577;52.122;5.406;2022-09-30T03:57:16;101019.56;;;4.38;87.35
71735;BME280;59577;52.122;5.406;2022-09-30T03:59:42;101018.09;;;4.32;87.07
71735;BME280;59577;52.122;5.406;2022-09-30T04:02:09;101026.13;;;4.32;86.71
71735;BME280;59577;52.122;5.406;2022-09-30T04:04:39;101025.81;;;4.33;86.91
71735;BME280;59577;52.122;5.406;2022-09-30T04:07:10;101021.06;;;4.30;87.15
71735;BME280;59577;52.122;5.406;2022-09-30T04:09:37;101023.75;;;4.30;86.74
71735;BME280;59577;52.122;5.406;2022-09-30T04:12:05;101019.50;;;4.29;87.45
71735;BME280;59577;52.122;5.406;2022-09-30T04:14:32;101027.53;;;4.29;87.11
71735;BME280;59577;52.122;5.406;2022-09-30T04:16:59;101033.81;;;4.25;86.89
71735;BME280;59577;52.122;5.406;2022-09-30T04:19:25;101032.03;;;4.20;87.23
71735;BME280;59577;52.122;5.406;2022-09-30T04:21:53;101029.63;;;4.19;87.41
71735;BME280;59577;52.122;5.406;2022-09-30T04:24:21;101029.75;;;4.13;87.03
71735;BME280;59577;52.122;5.406;2022-09-30T04:26:48;101029.28;;;4.11;87.20
71735;BME280;59577;52.122;5.406;2022-09-30T04:29:15;101035.13;;;4.13;86.72
71735;BME280;59577;52.122;5.406;2022-09-30T04:31:42;101036.22;;;4.12;86.61
71735;BME280;59577;52.122;5.406;2022-09-30T04:34:09;101039.03;;;4.07;87.24
71735;BME280;59577;52.122;5.406;2022-09-30T04:36:37;101040.91;;;4.07;87.48
71735;BME280;59577;52.122;5.406;2022-09-30T04:39:04;101044.69;;;4.06;86.83
71735;BME280;59577;52.122;5.406;2022-09-30T04:41:31;101053.31;;;4.03;87.25
71735;BME280;59577;52.122;5.406;2022-09-30T04:43:59;101041.91;;;3.97;87.57
71735;BME280;59577;52.122;5.406;2022-09-30T04:46:33;101054.72;;;4.00;87.14
71735;BME280;59577;52.122;5.406;2022-09-30T04:49:03;101057.00;;;4.07;87.12
71735;BME280;59577;52.122;5.406;2022-09-30T04:51:34;101045.75;;;4.05;86.97
71735;BME280;59577;52.122;5.406;2022-09-30T04:54:01;101046.38;;;4.02;87.63
71735;BME280;59577;52.122;5.406;2022-09-30T04:56:28;101050.63;;;4.03;86.85
71735;BME280;59577;52.122;5.406;2022-09-30T04:58:54;101051.13;;;4.05;87.13
71735;BME280;59577;52.122;5.406;2022-09-30T05:01:21;101048.66;;;4.08;87.30
71735;BME280;59577;52.122;5.406;2022-09-30T05:03:49;101055.56;;;4.09;86.99
71735;BME280;59577;52.122;5.406;2022-09-30T05:06:16;101049.34;;;4.00;87.26
71735;BME280;59577;52.122;5.406;2022-09-30T05:08:42;101046.91;;;3.90;87.32
71735;BME280;59577;52.122;5.406;2022-09-30T05:11:17;101062.47;;;3.88;87.07
71735;BME280;59577;52.122;5.406;2022-09-30T05:13:45;101053.16;;;3.85;87.19
71735;BME280;59577;52.122;5.406;2022-09-30T05:16:12;101059.91;;;3.83;87.04
71735;BME280;59577;52.122;5.406;2022-09-30T05:18:40;101078.34;;;3.84;86.93
71735;BME280;59577;52.122;5.406;2022-09-30T05:21:12;101078.13;;;3.81;86.62
71735;BME280;59577;52.122;5.406;2022-09-30T05:23:39;101074.38;;;3.82;87.31
71735;BME280;59577;52.122;5.406;2022-09-30T05:26:06;101074.19;;;3.78;87.23
71735;BME280;59577;52.122;5.406;2022-09-30T05:28:37;101069.91;;;3.77;86.88
71735;BME280;59577;52.122;5.406;2022-09-30T05:31:04;101075.88;;;3.74;87.47
71735;BME280;59577;52.122;5.406;2022-09-30T05:33:34;101069.22;;;3.71;87.05
71735;BME280;59577;52.122;5.406;2022-09-30T05:36:03;101076.47;;;3.71;87.06
71735;BME280;59577;52.122;5.406;2022-09-30T05:38:30;101087.09;;;3.76;87.08
71735;BME280;59577;52.122;5.406;2022-09-30T05:40:57;101085.38;;;3.80;87.35
71735;BME280;59577;52.122;5.406;2022-09-30T05:43:24;101084.59;;;3.80;87.14
71735;BME280;59577;52.122;5.406;2022-09-30T05:45:54;101080.03;;;3.80;87.38
71735;BME280;59577;52.122;5.406;2022-09-30T05:48:23;101073.88;;;3.80;87.32
71735;BME280;59577;52.122;5.406;2022-09-30T05:50:57;101083.28;;;3.77;87.61
71735;BME280;59577;52.122;5.406;2022-09-30T05:53:26;101092.53;;;3.71;87.22
71735;BME280;59577;52.122;5.406;2022-09-30T05:55:53;101091.44;;;3.72;86.86
71735;BME280;59577;52.122;5.406;2022-09-30T05:58:21;101091.44;;;3.72;87.04
71735;BME280;59577;52.122;5.406;2022-09-30T06:00:48;101092.63;;;3.80;87.04
71735;BME280;59577;52.122;5.406;2022-09-30T06:03:15;101098.84;;;3.89;87.06
71735;BME280;59577;52.122;5.406;2022-09-30T06:05:42;101104.41;;;3.92;87.33
71735;BME280;59577;52.122;5.406;2022-09-30T06:08:11;101103.91;;;3.90;87.33
71735;BME280;59577;52.122;5.406;2022-09-30T06:10:43;101101.34;;;3.85;86.80
71735;BME280;59577;52.122;5.406;2022-09-30T06:13:10;101099.56;;;3.81;86.88
71735;BME280;59577;52.122;5.406;2022-09-30T06:15:37;101104.22;;;3.89;87.42
71735;BME280;59577;52.122;5.406;2022-09-30T06:18:04;101110.78;;;3.97;87.13
71735;BME280;59577;52.122;5.406;2022-09-30T06:20:31;101104.31;;;3.98;87.49
71735;BME280;59577;52.122;5.406;2022-09-30T06:23:00;101106.97;;;3.98;87.38
71735;BME280;59577;52.122;5.406;2022-09-30T06:25:28;101111.34;;;4.07;87.43
71735;BME280;59577;52.122;5.406;2022-09-30T06:27:55;101112.50;;;4.15;87.39
71735;BME280;59577;52.122;5.406;2022-09-30T06:30:22;101111.69;;;4.28;87.23
71735;BME280;59577;52.122;5.406;2022-09-30T06:32:48;101107.06;;;4.43;87.15
71735;BME280;59577;52.122;5.406;2022-09-30T06:35:15;101109.75;;;4.65;87.18
71735;BME280;59577;52.122;5.406;2022-09-30T06:37:43;101109.41;;;4.81;87.06
71735;BME280;59577;52.122;5.406;2022-09-30T06:40:09;101119.59;;;4.93;86.65
71735;BME280;59577;52.122;5.406;2022-09-30T06:42:36;101115.00;;;5.16;86.01
71735;BME280;59577;52.122;5.406;2022-09-30T06:45:03;101116.91;;;5.24;85.88
71735;BME280;59577;52.122;5.406;2022-09-30T06:47:29;101117.47;;;5.35;85.98
71735;BME280;59577;52.122;5.406;2022-09-30T06:49:58;101111.44;;;5.78;86.22
71735;BME280;59577;52.122;5.406;2022-09-30T06:52:25;101112.56;;;8.15;81.07
71735;BME280;59577;52.122;5.406;2022-09-30T06:54:52;101115.97;;;9.82;76.28
71735;BME280;59577;52.122;5.406;2022-09-30T06:57:23;101114.31;;;8.95;75.39
71735;BME280;59577;52.122;5.406;2022-09-30T06:59:50;101116.88;;;7.86;77.28
71735;BME280;59577;52.122;5.406;2022-09-30T07:02:17;101119.00;;;7.33;78.70
71735;BME280;59577;52.122;5.406;2022-09-30T07:04:44;101121.19;;;6.92;79.34
71735;BME280;59577;52.122;5.406;2022-09-30T07:07:10;101126.41;;;6.97;81.41
71735;BME280;59577;52.122;5.406;2022-09-30T07:09:37;101121.13;;;8.17;80.24
71735;BME280;59577;52.122;5.406;2022-09-30T07:12:04;101116.41;;;8.35;78.32
71735;BME280;59577;52.122;5.406;2022-09-30T07:14:32;101114.25;;;7.77;79.31
71735;BME280;59577;52.122;5.406;2022-09-30T07:16:59;101118.63;;;7.52;81.08
71735;BME280;59577;52.122;5.406;2022-09-30T07:19:29;101122.84;;;7.70;81.87
71735;BME280;59577;52.122;5.406;2022-09-30T07:21:56;101119.72;;;8.74;82.37
71735;BME280;59577;52.122;5.406;2022-09-30T07:24:43;101120.38;;;10.52;78.65
71735;BME280;59577;52.122;5.406;2022-09-30T07:27:09;101104.59;;;10.29;77.62
71735;BME280;59577;52.122;5.406;2022-09-30T07:29:36;101106.47;;;10.13;77.93
71735;BME280;59577;52.122;5.406;2022-09-30T07:32:22;101101.88;;;10.54;77.82
71735;BME280;59577;52.122;5.406;2022-09-30T07:34:49;101107.84;;;11.36;77.36
71735;BME280;59577;52.122;5.406;2022-09-30T07:37:17;101098.47;;;13.98;71.65
71735;BME280;59577;52.122;5.406;2022-09-30T07:39:46;101104.06;;;13.82;70.23
71735;BME280;59577;52.122;5.406;2022-09-30T07:42:15;101098.41;;;15.37;68.18
71735;BME280;59577;52.122;5.406;2022-09-30T07:44:48;101100.94;;;19.05;60.15
71735;BME280;59577;52.122;5.406;2022-09-30T07:47:18;101099.47;;;21.94;51.89
71735;BME280;59577;52.122;5.406;2022-09-30T07:49:46;101100.47;;;23.59;46.64
71735;BME280;59577;52.122;5.406;2022-09-30T07:52:13;101097.84;;;24.78;43.48
71735;BME280;59577;52.122;5.406;2022-09-30T07:54:41;101098.88;;;25.32;41.45
71735;BME280;59577;52.122;5.406;2022-09-30T07:57:15;101095.41;;;25.98;38.91
71735;BME280;59577;52.122;5.406;2022-09-30T07:59:42;101088.84;;;26.36;38.56
71735;BME280;59577;52.122;5.406;2022-09-30T08:02:16;101087.16;;;26.79;38.70
71735;BME280;59577;52.122;5.406;2022-09-30T08:04:44;101083.09;;;27.30;36.64
71735;BME280;59577;52.122;5.406;2022-09-30T08:07:12;101083.88;;;27.31;35.64
71735;BME280;59577;52.122;5.406;2022-09-30T08:09:38;101087.44;;;27.31;36.52
71735;BME280;59577;52.122;5.406;2022-09-30T08:12:05;101075.50;;;27.21;34.37
71735;BME280;59577;52.122;5.406;2022-09-30T08:14:31;101073.22;;;27.48;33.70
71735;BME280;59577;52.122;5.406;2022-09-30T08:16:58;101068.72;;;27.23;34.94
71735;BME280;59577;52.122;5.406;2022-09-30T08:19:27;101072.53;;;26.97;34.86
71735;BME280;59577;52.122;5.406;2022-09-30T08:21:55;101072.16;;;27.36;33.26
71735;BME280;59577;52.122;5.406;2022-09-30T08:24:23;101076.13;;;27.81;34.92
71735;BME280;59577;52.122;5.406;2022-09-30T08:26:50;101080.00;;;28.36;32.70
71735;BME280;59577;52.122;5.406;2022-09-30T08:29:18;101076.25;;;28.48;32.39
71735;BME280;59577;52.122;5.406;2022-09-30T08:32:04;101082.72;;;28.21;32.21
71735;BME280;59577;52.122;5.406;2022-09-30T08:34:31;101087.66;;;28.17;32.19
71735;BME280;59577;52.122;5.406;2022-09-30T08:37:01;101091.66;;;28.25;33.00
71735;BME280;59577;52.122;5.406;2022-09-30T08:39:37;101077.06;;;28.39;32.49
71735;BME280;59577;52.122;5.406;2022-09-30T08:48:37;101081.03;;;28.14;33.11
71735;BME280;59577;52.122;5.406;2022-09-30T08:53:39;101078.63;;;27.61;32.69
71735;BME280;59577;52.122;5.406;2022-09-30T08:56:07;101083.28;;;27.36;33.17
71735;BME280;59577;52.122;5.406;2022-09-30T08:58:40;101076.91;;;27.35;33.28
71735;BME280;59577;52.122;5.406;2022-09-30T09:01:24;101081.72;;;27.35;34.69
71735;BME280;59577;52.122;5.406;2022-09-30T09:03:56;101086.16;;;27.14;33.84
71735;BME280;59577;52.122;5.406;2022-09-30T09:06:28;101087.69;;;27.06;35.34
71735;BME280;59577;52.122;5.406;2022-09-30T09:09:22;101088.66;;;27.30;34.31
71735;BME280;59577;52.122;5.406;2022-09-30T09:20:54;101091.94;;;27.56;33.20
71735;BME280;59577;52.122;5.406;2022-09-30T09:23:21;101089.22;;;25.94;35.29
71735;BME280;59577;52.122;5.406;2022-09-30T09:25:48;101085.69;;;25.59;36.13
71735;BME280;59577;52.122;5.406;2022-09-30T09:30:55;101075.72;;;25.83;35.92
71735;BME280;59577;52.122;5.406;2022-09-30T09:33:27;101073.13;;;25.67;37.73
71735;BME280;59577;52.122;5.406;2022-09-30T09:38:57;101078.81;;;25.63;36.62
71735;BME280;59577;52.122;5.406;2022-09-30T09:41:45;101075.97;;;23.74;38.93
71735;BME280;59577;52.122;5.406;2022-09-30T09:44:42;101075.97;;;22.63;40.92
71735;BME280;59577;52.122;5.406;2022-09-30T09:47:13;101072.00;;;21.47;44.35
71735;BME280;59577;52.122;5.406;2022-09-30T09:49:44;101077.75;;;20.55;46.47
71735;BME280;59577;52.122;5.406;2022-09-30T09:54:50;101083.50;;;19.26;50.09
71735;BME280;59577;52.122;5.406;2022-09-30T09:57:19;101080.69;;;18.85;52.57
71735;BME280;59577;52.122;5.406;2022-09-30T10:02:28;101085.28;;;18.32;54.37
71735;BME280;59577;52.122;5.406;2022-09-30T10:04:57;101088.13;;;17.99;54.24
71735;BME280;59577;52.122;5.406;2022-09-30T10:07:32;101092.50;;;17.79;55.91
71735;BME280;59577;52.122;5.406;2022-09-30T10:12:46;101085.44;;;17.74;54.58
71735;BME280;59577;52.122;5.406;2022-09-30T10:15:23;101084.75;;;17.27;55.92
71735;BME280;59577;52.122;5.406;2022-09-30T10:17:53;101089.41;;;17.08;57.07
71735;BME280;59577;52.122;5.406;2022-09-30T10:20:33;101083.47;;;16.63;56.95
71735;BME280;59577;52.122;5.406;2022-09-30T10:23:17;101079.88;;;16.30;57.63
71735;BME280;59577;52.122;5.406;2022-09-30T10:28:28;101080.59;;;16.20;58.75
71735;BME280;59577;52.122;5.406;2022-09-30T10:30:56;101085.59;;;16.04;60.45
71735;BME280;59577;52.122;5.406;2022-09-30T10:33:34;101089.13;;;16.04;59.66
71735;BME280;59577;52.122;5.406;2022-09-30T10:36:31;101078.59;;;16.03;60.17
71735;BME280;59577;52.122;5.406;2022-09-30T10:39:02;101085.56;;;16.00;60.75
71735;BME280;59577;52.122;5.406;2022-09-30T10:41:35;101082.03;;;15.92;61.01
71735;BME280;59577;52.122;5.406;2022-09-30T10:44:14;101085.06;;;15.76;60.68
71735;BME280;59577;52.122;5.406;2022-09-30T10:46:43;101083.13;;;15.77;61.78
71735;BME280;59577;52.122;5.406;2022-09-30T10:49:29;101081.19;;;15.85;61.49
71735;BME280;59577;52.122;5.406;2022-09-30T10:51:59;101079.63;;;15.80;61.94
71735;BME280;59577;52.122;5.406;2022-09-30T10:57:13;101073.06;;;15.92;61.83
71735;BME280;59577;52.122;5.406;2022-09-30T10:59:41;101076.25;;;16.05;61.36
71735;BME280;59577;52.122;5.406;2022-09-30T11:05:25;101070.47;;;16.31;59.33
71735;BME280;59577;52.122;5.406;2022-09-30T11:08:00;101065.81;;;16.28;60.21
71735;BME280;59577;52.122;5.406;2022-09-30T11:10:47;101065.09;;;16.60;59.45
71735;BME280;59577;52.122;5.406;2022-09-30T11:16:23;101060.63;;;18.32;55.37
71735;BME280;59577;52.122;5.406;2022-09-30T11:19:02;101063.06;;;18.04;55.88
71735;BME280;59577;52.122;5.406;2022-09-30T11:21:45;101059.28;;;17.59;55.48
71735;BME280;59577;52.122;5.406;2022-09-30T11:24:28;101062.84;;;17.34;56.56
71735;BME280;59577;52.122;5.406;2022-09-30T11:27:15;101055.03;;;17.33;58.38
71735;BME280;59577;52.122;5.406;2022-09-30T11:38:04;101050.16;;;18.12;57.08
71735;BME280;59577;52.122;5.406;2022-09-30T11:40:37;101050.41;;;18.39;55.00
71735;BME280;59577;52.122;5.406;2022-09-30T11:43:15;101044.38;;;18.63;52.33
71735;BME280;59577;52.122;5.406;2022-09-30T11:46:19;101045.63;;;17.52;53.34
71735;BME280;59577;52.122;5.406;2022-09-30T11:51:44;101037.81;;;17.36;57.84
71735;BME280;59577;52.122;5.406;2022-09-30T11:57:18;101033.94;;;17.08;55.51
71735;BME280;59577;52.122;5.406;2022-09-30T11:59:58;101029.63;;;17.10;56.29
71735;BME280;59577;52.122;5.406;2022-09-30T12:02:39;101025.69;;;17.37;56.99
71735;BME280;59577;52.122;5.406;2022-09-30T12:05:36;101021.81;;;17.27;56.48
71735;BME280;59577;52.122;5.406;2022-09-30T12:08:14;101025.31;;;17.06;56.93
71735;BME280;59577;52.122;5.406;2022-09-30T12:10:45;101030.03;;;17.05;57.61
71735;BME280;59577;52.122;5.406;2022-09-30T12:13:22;101023.00;;;17.08;57.21
71735;BME280;59577;52.122;5.406;2022-09-30T12:15:52;101016.38;;;16.91;58.18
71735;BME280;59577;52.122;5.406;2022-09-30T12:18:27;101022.19;;;16.79;58.86
71735;BME280;59577;52.122;5.406;2022-09-30T12:20:59;101013.56;;;16.73;59.42
71735;BME280;59577;52.122;5.406;2022-09-30T12:23:32;101012.41;;;16.63;58.86
71735;BME280;59577;52.122;5.406;2022-09-30T12:26:03;101012.00;;;16.54;59.38
71735;BME280;59577;52.122;5.406;2022-09-30T12:28:36;101011.59;;;16.52;58.52
71735;BME280;59577;52.122;5.406;2022-09-30T12:34:50;100999.91;;;16.69;57.32
71735;BME280;59577;52.122;5.406;2022-09-30T12:37:33;100993.66;;;16.80;57.67
71735;BME280;59577;52.122;5.406;2022-09-30T12:40:23;100996.41;;;16.80;55.98
71735;BME280;59577;52.122;5.406;2022-09-30T12:43:19;100991.69;;;16.41;57.24
71735;BME280;59577;52.122;5.406;2022-09-30T12:46:12;100991.69;;;16.41;57.85
71735;BME280;59577;52.122;5.406;2022-09-30T12:48:50;100999.47;;;16.35;59.17
71735;BME280;59577;52.122;5.406;2022-09-30T12:51:25;100992.81;;;16.25;59.81
71735;BME280;59577;52.122;5.406;2022-09-30T12:54:00;100997.53;;;16.28;59.00
71735;BME280;59577;52.122;5.406;2022-09-30T12:56:31;100999.09;;;16.40;59.26
71735;BME280;59577;52.122;5.406;2022-09-30T12:58:59;100988.59;;;16.53;59.38
71735;BME280;59577;52.122;5.406;2022-09-30T13:01:29;100990.94;;;16.51;59.66
71735;BME280;59577;52.122;5.406;2022-09-30T13:09:19;100981.19;;;16.75;60.34
71735;BME280;59577;52.122;5.406;2022-09-30T13:14:29;100984.31;;;16.81;59.53
71735;BME280;59577;52.122;5.406;2022-09-30T13:27:33;100955.00;;;17.17;59.02
71735;BME280;59577;52.122;5.406;2022-09-30T13:30:02;100955.75;;;17.21;60.71
71735;BME280;59577;52.122;5.406;2022-09-30T13:33:05;100945.25;;;17.05;58.29
71735;BME280;59577;52.122;5.406;2022-09-30T13:35:51;100944.09;;;16.99;58.94
71735;BME280;59577;52.122;5.406;2022-09-30T13:38:20;100945.25;;;17.09;59.01
71735;BME280;59577;52.122;5.406;2022-09-30T13:40:53;100945.25;;;17.09;58.73
71735;BME280;59577;52.122;5.406;2022-09-30T13:46:05;100940.56;;;17.13;56.73
71735;BME280;59577;52.122;5.406;2022-09-30T13:48:37;100946.44;;;17.04;56.54
71735;BME280;59577;52.122;5.406;2022-09-30T13:51:11;100928.06;;;17.05;55.73
71735;BME280;59577;52.122;5.406;2022-09-30T13:54:28;100930.00;;;17.12;56.18
71735;BME280;59577;52.122;5.406;2022-09-30T13:56:53;100930.03;;;17.04;56.44
71735;BME280;59577;52.122;5.406;2022-09-30T14:08:01;100939.00;;;17.05;57.13
71735;BME280;59577;52.122;5.406;2022-09-30T14:10:53;100932.75;;;16.97;58.17
71735;BME280;59577;52.122;5.406;2022-09-30T14:21:46;100920.25;;;16.82;58.53
71735;BME280;59577;52.122;5.406;2022-09-30T14:24:21;100907.38;;;16.71;59.18
71735;BME280;59577;52.122;5.406;2022-09-30T14:32:51;100913.59;;;16.83;58.81
71735;BME280;59577;52.122;5.406;2022-09-30T14:35:24;100913.63;;;16.86;59.25
71735;BME280;59577;52.122;5.406;2022-09-30T14:37:56;100902.31;;;16.88;58.64
71735;BME280;59577;52.122;5.406;2022-09-30T14:40:32;100904.66;;;16.75;57.95
71735;BME280;59577;52.122;5.406;2022-09-30T14:43:06;100901.13;;;16.71;58.59
71735;BME280;59577;52.122;5.406;2022-09-30T14:45:41;100903.09;;;16.70;59.44
71735;BME280;59577;52.122;5.406;2022-09-30T14:48:14;100893.72;;;16.75;58.20
71735;BME280;59577;52.122;5.406;2022-09-30T14:51:06;100882.78;;;16.68;58.34
71735;BME280;59577;52.122;5.406;2022-09-30T14:53:38;100892.94;;;16.67;57.58
71735;BME280;59577;52.122;5.406;2022-09-30T14:56:20;100880.47;;;16.66;56.93
71735;BME280;59577;52.122;5.406;2022-09-30T14:58:48;100889.41;;;16.70;57.68
71735;BME280;59577;52.122;5.406;2022-09-30T15:01:19;100888.25;;;16.71;57.29
71735;BME280;59577;52.122;5.406;2022-09-30T15:03:53;100892.53;;;16.65;57.37
71735;BME280;59577;52.122;5.406;2022-09-30T15:06:23;100893.31;;;16.69;57.74
71735;BME280;59577;52.122;5.406;2022-09-30T15:08:59;100893.72;;;16.75;56.94
71735;BME280;59577;52.122;5.406;2022-09-30T15:11:27;100893.72;;;16.75;56.80
71735;BME280;59577;52.122;5.406;2022-09-30T15:16:49;100903.06;;;16.81;56.82
71735;BME280;59577;52.122;5.406;2022-09-30T15:19:21;100901.09;;;16.82;57.17
71735;BME280;59577;52.122;5.406;2022-09-30T15:21:50;100905.41;;;16.79;57.37
71735;BME280;59577;52.122;5.406;2022-09-30T15:24:18;100910.13;;;16.79;57.34
71735;BME280;59577;52.122;5.406;2022-09-30T15:26:46;100912.06;;;16.74;57.82
71735;BME280;59577;52.122;5.406;2022-09-30T15:29:15;100911.66;;;16.72;58.07
71735;BME280;59577;52.122;5.406;2022-09-30T15:31:54;100906.59;;;16.64;57.69
71735;BME280;59577;52.122;5.406;2022-09-30T15:34:24;100905.84;;;16.60;57.78
71735;BME280;59577;52.122;5.406;2022-09-30T15:37:01;100904.66;;;16.50;58.15
71735;BME280;59577;52.122;5.406;2022-09-30T15:39:40;100900.34;;;16.31;58.68
71735;BME280;59577;52.122;5.406;2022-09-30T15:42:36;100901.50;;;16.08;58.93
71735;BME280;59577;52.122;5.406;2022-09-30T15:45:36;100904.56;;;15.85;59.20
71735;BME280;59577;52.122;5.406;2022-09-30T15:50:43;100910.69;;;15.60;60.71
71735;BME280;59577;52.122;5.406;2022-09-30T15:53:21;100906.38;;;15.52;60.61
71735;BME280;59577;52.122;5.406;2022-09-30T15:55:52;100906.38;;;15.52;61.06
71735;BME280;59577;52.122;5.406;2022-09-30T16:01:15;100900.22;;;15.66;61.34